sensor_id;sensor_type;location;lat;lon;timestamp;temperature;humidity
10386;DHT22;34307;51.332;12.334;2023-02-24T06:01:16;3.40;99.90
10386;DHT22;34307;51.332;12.334;2023-02-24T06:03:45;3.30;99.90
10386;DHT22;34307;51.332;12.334;2023-02-24T06:06:14;3.20;99.90
10386;DHT22;34307;51.332;12.334;2023-02-24T06:08:42;3.30;99.90
10386;DHT22;34307;51.332;12.334;2023-02-24T06:11:16;3.30;99.90
10386;DHT22;34307;51.332;12.334;2023-02-24T06:13:45;3.30;99.90
10386;DHT22;34307;51.332;12.334;2023-02-24T06:16:16;3.30;99.90
10386;DHT22;34307;51.332;12.334;2023-02-24T06:18:47;3.30;99.90
10386;DHT22;34307;51.332;12.334;2023-02-24T06:21:15;3.30;99.90
10386;DHT22;34307;51.332;12.334;2023-02-24T06:23:43;3.40;99.90
10386;DHT22;34307;51.332;12.334;2023-02-24T06:26:11;3.40;99.90
10386;DHT22;34307;51.332;12.334;2023-02-24T06:28:45;3.30;99.90
10386;DHT22;34307;51.332;12.334;2023-02-24T06:31:13;3.40;99.90
10386;DHT22;34307;51.332;12.334;2023-02-24T06:33:42;3.40;99.90
10386;DHT22;34307;51.332;12.334;2023-02-24T06:36:10;3.40;99.90
10386;DHT22;34307;51.332;12.334;2023-02-24T06:38:40;3.30;99.90
10386;DHT22;34307;51.332;12.334;2023-02-24T06:41:08;3.40;99.90
10386;DHT22;34307;51.332;12.334;2023-02-24T10:33:45;6.90;99.90
10386;DHT22;34307;51.332;12.334;2023-02-24T11:05:13;6.60;99.90
10386;DHT22;34307;51.332;12.334;2023-02-24T11:15:18;6.70;99.90
10386;DHT22;34307;51.332;12.334;2023-02-24T11:18:05;6.80;99.90
10386;DHT22;34307;51.332;12.334;2023-02-24T11:20:36;6.70;99.90
10386;DHT22;34307;51.332;12.334;2023-02-24T11:30:40;6.80;99.90
10386;DHT22;34307;51.332;12.334;2023-02-24T11:40:29;6.50;99.90
10386;DHT22;34307;51.332;12.334;2023-02-24T11:50:39;6.60;99.90
10386;DHT22;34307;51.332;12.334;2023-02-24T11:53:17;6.70;99.90
10386;DHT22;34307;51.332;12.334;2023-02-24T12:03:12;6.70;99.90
10386;DHT22;34307;51.332;12.334;2023-02-24T12:13:18;6.60;99.90
10386;DHT22;34307;51.332;12.334;2023-02-24T12:24:54;6.30;99.90
10386;DHT22;34307;51.332;12.334;2023-02-24T12:34:54;6.30;99.90
10386;DHT22;34307;51.332;12.334;2023-02-24T12:37:41;6.40;99.90
10386;DHT22;34307;51.332;12.334;2023-02-24T12:40:19;6.10;99.90
10386;DHT22;34307;51.332;12.334;2023-02-24T16:16:01;2.70;99.90
10386;DHT22;34307;51.332;12.334;2023-02-24T16:18:31;2.60;99.90
10386;DHT22;34307;51.332;12.334;2023-02-24T16:20:59;2.60;99.90
10386;DHT22;34307;51.332;12.334;2023-02-24T16:23:28;2.60;99.90
10386;DHT22;34307;51.332;12.334;2023-02-24T16:25:57;2.60;99.90
10386;DHT22;34307;51.332;12.334;2023-02-24T16:28:25;2.60;99.90
10386;DHT22;34307;51.332;12.334;2023-02-24T16:30:53;2.60;99.90
10386;DHT22;34307;51.332;12.334;2023-02-24T16:33:23;2.60;99.90
10386;DHT22;34307;51.332;12.334;2023-02-24T16:35:51;2.50;99.90
10386;DHT22;34307;51.332;12.334;2023-02-24T16:38:20;2.60;99.90
10386;DHT22;34307;51.332;12.334;2023-02-24T16:40:52;2.50;99.90
10386;DHT22;34307;51.332;12.334;2023-02-24T16:43:20;2.50;99.90
10386;DHT22;34307;51.332;12.334;2023-02-24T16:46:01;2.50;99.90
10386;DHT22;34307;51.332;12.334;2023-02-24T16:48:32;2.50;99.90
10386;DHT22;34307;51.332;12.334;2023-02-24T16:51:03;2.50;99.90
10386;DHT22;34307;51.332;12.334;2023-02-24T16:53:32;2.50;99.90
10386;DHT22;34307;51.332;12.334;2023-02-24T16:55:59;2.50;99.90
10386;DHT22;34307;51.332;12.334;2023-02-24T16:58:27;2.50;99.90
10386;DHT22;34307;51.332;12.334;2023-02-24T17:00:57;2.50;99.90
10386;DHT22;34307;51.332;12.334;2023-02-24T17:03:30;2.50;99.90
